createdAt,value
2019-03-05T00:00:40.900Z,97935.98
2019-03-05T00:03:09.797Z,97941.23
2019-03-05T00:05:38.558Z,97947.48
2019-03-05T00:08:07.599Z,97964.58
2019-03-05T00:10:36.377Z,97973.15
2019-03-05T00:13:05.098Z,97986.04
2019-03-05T00:15:33.899Z,97997.41
2019-03-05T00:18:02.639Z,98018.05
2019-03-05T00:20:31.438Z,98013.81
2019-03-05T00:23:00.199Z,98019.45
2019-03-05T00:25:32.005Z,98025.83
2019-03-05T00:28:28.217Z,98019.05
2019-03-05T00:31:02.829Z,98032.50
2019-03-05T00:33:40.079Z,98027.81
2019-03-05T00:36:11.742Z,98040.26
2019-03-05T00:38:46.319Z,98059.56
2019-03-05T00:41:35.300Z,98044.52
2019-03-05T00:44:40.339Z,98045.74
2019-03-05T00:47:20.919Z,98051.23
2019-03-05T00:50:17.038Z,98038.66
2019-03-05T00:52:48.717Z,98047.06
2019-03-05T00:55:49.982Z,98057.71
2019-03-05T00:58:27.622Z,98062.81
2019-03-05T01:01:21.837Z,98062.16
2019-03-05T01:03:56.099Z,98073.98
2019-03-05T01:06:27.503Z,98061.56
2019-03-05T01:08:57.725Z,98074.39
2019-03-05T01:11:27.000Z,98076.83
2019-03-05T01:13:55.799Z,98082.45
2019-03-05T01:16:29.518Z,98078.70
2019-03-05T01:18:58.418Z,98079.87
2019-03-05T01:21:27.153Z,98084.75
2019-03-05T01:23:55.920Z,98087.52
2019-03-05T01:26:25.067Z,98088.27
2019-03-05T01:28:53.821Z,98111.09
2019-03-05T01:31:24.622Z,98108.87
2019-03-05T01:33:54.977Z,98115.81
2019-03-05T01:36:25.279Z,98109.49
2019-03-05T01:39:04.422Z,98117.55
2019-03-05T01:41:33.477Z,98120.37
2019-03-05T01:44:02.277Z,98122.39
2019-03-05T01:46:31.017Z,98122.66
2019-03-05T01:48:59.757Z,98119.61
2019-03-05T01:51:28.537Z,98121.06
2019-03-05T01:53:57.300Z,98121.98
2019-03-05T01:56:26.102Z,98126.80
2019-03-05T01:58:54.822Z,98138.47
2019-03-05T02:01:23.558Z,98135.05
2019-03-05T02:03:52.358Z,98142.38
2019-03-05T02:06:21.497Z,98152.50
2019-03-05T02:08:50.278Z,98152.75
2019-03-05T02:11:19.019Z,98157.63
2019-03-05T02:13:47.757Z,98163.64
2019-03-05T02:16:16.538Z,98167.01
2019-03-05T02:18:45.379Z,98175.77
2019-03-05T02:21:14.120Z,98174.92
2019-03-05T02:24:05.020Z,98175.59
2019-03-05T02:26:42.761Z,98170.27
2019-03-05T02:29:22.959Z,98173.89
2019-03-05T02:32:03.538Z,98187.64
2019-03-05T02:34:47.505Z,98174.60
2019-03-05T02:37:22.065Z,98187.20
2019-03-05T02:40:14.599Z,98208.20
2019-03-05T02:42:55.119Z,98186.73
2019-03-05T02:45:41.988Z,98195.04
2019-03-05T02:48:31.780Z,98195.04
2019-03-05T02:51:24.680Z,98197.80
2019-03-05T02:54:14.178Z,98204.63
2019-03-05T02:57:08.482Z,98199.09
2019-03-05T02:59:36.584Z,98213.50
2019-03-05T03:02:15.120Z,98215.09
2019-03-05T03:04:45.497Z,98220.52
2019-03-05T03:07:14.262Z,98219.52
2019-03-05T03:09:51.677Z,98223.45
2019-03-05T03:12:20.759Z,98230.73
2019-03-05T03:14:49.521Z,98233.55
2019-03-05T03:17:18.303Z,98233.55
2019-03-05T03:19:47.058Z,98231.78
2019-03-05T03:22:15.814Z,98235.36
2019-03-05T03:24:44.590Z,98237.06
2019-03-05T03:27:13.678Z,98245.88
2019-03-05T03:29:42.455Z,98232.94
2019-03-05T03:32:11.240Z,98235.55
2019-03-05T03:34:40.022Z,98238.91
2019-03-05T03:37:08.818Z,98233.63
2019-03-05T03:39:38.041Z,98231.63
2019-03-05T03:42:06.800Z,98240.36
2019-03-05T03:44:35.543Z,98228.08
2019-03-05T03:47:04.319Z,98240.60
2019-03-05T03:49:33.079Z,98238.37
2019-03-05T03:52:01.859Z,98239.98
2019-03-05T03:54:30.633Z,98238.71
2019-03-05T03:56:59.418Z,98244.80
2019-03-05T03:59:28.146Z,98249.50
2019-03-05T04:01:56.903Z,98250.61
2019-03-05T04:04:25.698Z,98251.19
2019-03-05T04:06:54.458Z,98247.80
2019-03-05T04:09:23.324Z,98248.72
2019-03-05T04:11:52.098Z,98243.80
2019-03-05T04:14:20.881Z,98247.84
2019-03-05T04:16:49.619Z,98243.98
2019-03-05T04:19:19.958Z,98246.11
2019-03-05T04:21:48.759Z,98263.36
2019-03-05T04:24:17.497Z,98250.42
2019-03-05T04:26:46.278Z,98252.23
2019-03-05T04:29:15.026Z,98236.25
2019-03-05T04:31:43.817Z,98242.95
2019-03-05T04:34:12.578Z,98244.14
2019-03-05T04:36:41.317Z,98233.67
2019-03-05T04:39:12.257Z,98238.63
2019-03-05T04:41:41.025Z,98230.23
2019-03-05T04:44:09.839Z,98235.89
2019-03-05T04:46:38.579Z,98231.82
2019-03-05T04:49:08.877Z,98231.81
2019-03-05T04:51:41.938Z,98231.70
2019-03-05T04:54:10.662Z,98222.53
2019-03-05T04:56:39.479Z,98223.84
2019-03-05T04:59:08.258Z,98219.23
2019-03-05T05:01:36.998Z,98214.25
2019-03-05T05:04:05.797Z,98227.20
2019-03-05T05:06:34.539Z,98234.83
2019-03-05T05:09:04.317Z,98237.58
2019-03-05T05:11:33.078Z,98236.10
2019-03-05T05:14:01.839Z,98234.45
2019-03-05T05:16:30.619Z,98243.11
2019-03-05T05:18:59.379Z,98246.02
2019-03-05T05:21:28.161Z,98249.08
2019-03-05T05:23:56.902Z,98238.89
2019-03-05T05:26:26.078Z,98262.16
2019-03-05T05:28:54.852Z,98267.02
2019-03-05T05:31:23.861Z,98254.97
2019-03-05T05:33:52.638Z,98275.48
2019-03-05T05:36:21.360Z,98256.39
2019-03-05T05:38:50.159Z,98251.42
2019-03-05T05:41:18.918Z,98258.82
2019-03-05T05:43:47.665Z,98249.12
2019-03-05T05:46:16.466Z,98269.45
2019-03-05T05:48:45.199Z,98266.83
2019-03-05T05:51:13.933Z,98273.77
2019-03-05T05:53:42.696Z,98286.33
2019-03-05T05:56:11.409Z,98276.77
2019-03-05T05:58:40.336Z,98281.97
2019-03-05T06:01:10.653Z,98272.61
2019-03-05T06:03:39.403Z,98272.15
2019-03-05T06:06:08.171Z,98279.73
2019-03-05T06:08:36.915Z,98289.88
2019-03-05T06:11:05.701Z,98284.13
2019-03-05T06:13:35.853Z,98288.18
2019-03-05T06:16:04.744Z,98289.17
2019-03-05T06:18:33.507Z,98277.27
2019-03-05T06:21:02.237Z,98285.98
2019-03-05T06:23:32.753Z,98290.22
2019-03-05T06:26:01.479Z,98286.78
2019-03-05T06:28:30.356Z,98295.95
2019-03-05T06:30:59.100Z,98293.14
2019-03-05T06:33:27.839Z,98287.39
2019-03-05T06:35:56.590Z,98291.33
2019-03-05T06:38:25.471Z,98295.56
2019-03-05T06:40:54.206Z,98293.48
2019-03-05T06:43:23.195Z,98295.57
2019-03-05T06:45:51.959Z,98291.56
2019-03-05T06:48:20.692Z,98304.66
2019-03-05T06:50:49.463Z,98305.52
2019-03-05T06:53:18.182Z,98295.56
2019-03-05T06:55:47.224Z,98295.88
2019-03-05T06:58:16.336Z,98301.85
2019-03-05T07:00:45.073Z,98303.70
2019-03-05T07:03:13.834Z,98301.51
2019-03-05T07:06:18.920Z,98303.89
2019-03-05T07:08:50.619Z,98306.48
2019-03-05T07:11:30.854Z,98312.19
2019-03-05T07:14:11.573Z,98307.36
2019-03-05T07:16:52.106Z,98312.22
2019-03-05T07:19:22.679Z,98308.75
2019-03-05T07:22:00.063Z,98316.30
2019-03-05T07:24:46.638Z,98326.00
2019-03-05T07:27:18.158Z,98328.75
2019-03-05T07:29:46.935Z,98332.70
2019-03-05T07:32:15.654Z,98334.55
2019-03-05T07:34:45.947Z,98341.99
2019-03-05T07:37:14.829Z,98337.16
2019-03-05T07:39:43.696Z,98352.14
2019-03-05T07:42:12.545Z,98338.36
2019-03-05T07:44:41.300Z,98334.27
2019-03-05T07:47:10.034Z,98332.95
2019-03-05T07:49:43.778Z,98340.75
2019-03-05T07:52:09.309Z,98352.13
2019-03-05T07:54:38.388Z,98352.70
2019-03-05T07:57:07.161Z,98353.89
2019-03-05T07:59:35.969Z,98367.36
2019-03-05T08:02:05.233Z,98330.23
2019-03-05T08:04:33.961Z,98349.67
2019-03-05T08:07:02.743Z,98346.05
2019-03-05T08:09:38.957Z,98350.61
2019-03-05T08:12:23.038Z,98350.00
2019-03-05T08:15:00.765Z,98348.53
2019-03-05T08:17:29.928Z,98358.54
2019-03-05T08:19:58.681Z,98356.53
2019-03-05T08:22:28.437Z,98389.70
2019-03-05T08:24:57.238Z,98365.70
2019-03-05T08:27:26.008Z,98362.08
2019-03-05T08:29:54.834Z,98373.83
2019-03-05T08:32:24.593Z,98361.75
2019-03-05T08:34:53.339Z,98360.98
2019-03-05T08:37:22.124Z,98354.80
2019-03-05T08:39:50.880Z,98388.07
2019-03-05T08:42:19.689Z,98358.28
2019-03-05T08:44:50.629Z,98395.91
2019-03-05T08:47:19.723Z,98364.52
2019-03-05T08:49:48.528Z,98374.70
2019-03-05T08:52:17.288Z,98371.65
2019-03-05T08:54:46.465Z,98366.77
2019-03-05T08:57:15.208Z,98361.55
2019-03-05T08:59:43.963Z,98381.52
2019-03-05T09:02:12.756Z,98405.55
2019-03-05T09:04:41.559Z,98386.44
2019-03-05T09:07:10.363Z,98377.76
2019-03-05T09:09:40.484Z,98378.58
2019-03-05T09:12:09.242Z,98392.98
2019-03-05T09:14:38.408Z,98382.29
2019-03-05T09:17:07.354Z,98391.89
2019-03-05T09:19:36.164Z,98406.20
2019-03-05T09:22:04.941Z,98421.83
2019-03-05T09:24:33.685Z,98401.23
2019-03-05T09:27:02.462Z,98388.16
2019-03-05T09:29:31.200Z,98389.92
2019-03-05T09:31:59.977Z,98405.71
2019-03-05T09:34:28.724Z,98418.05
2019-03-05T09:36:57.520Z,98414.76
2019-03-05T09:39:26.350Z,98398.24
2019-03-05T09:41:55.840Z,98408.40
2019-03-05T09:44:24.594Z,98414.52
2019-03-05T09:46:53.343Z,98424.10
2019-03-05T09:49:22.142Z,98395.50
2019-03-05T09:51:50.990Z,98403.08
2019-03-05T09:54:19.790Z,98407.66
2019-03-05T09:56:48.559Z,98374.82
2019-03-05T09:59:17.303Z,98412.66
2019-03-05T10:01:47.649Z,98403.56
2019-03-05T10:04:16.687Z,98433.52
2019-03-05T10:06:45.404Z,98419.40
2019-03-05T10:09:14.859Z,98429.11
2019-03-05T10:11:43.608Z,98462.88
2019-03-05T10:14:12.402Z,98419.64
2019-03-05T10:16:41.232Z,98442.18
2019-03-05T10:19:10.033Z,98458.29
2019-03-05T10:21:46.334Z,98424.44
2019-03-05T10:24:11.115Z,98403.60
2019-03-05T10:26:40.282Z,98443.88
2019-03-05T10:29:09.075Z,98407.48
2019-03-05T10:31:37.901Z,98428.05
2019-03-05T10:34:06.669Z,98424.02
2019-03-05T10:36:37.141Z,98436.13
2019-03-05T10:39:08.852Z,98467.02
2019-03-05T10:41:37.598Z,98444.56
2019-03-05T10:44:06.349Z,98458.39
2019-03-05T10:46:35.139Z,98442.07
2019-03-05T10:49:03.901Z,98466.55
2019-03-05T10:51:32.802Z,98417.95
2019-03-05T10:54:02.290Z,98459.17
2019-03-05T10:56:31.585Z,98453.67
2019-03-05T10:59:00.465Z,98452.05
2019-03-05T11:01:29.278Z,98450.85
2019-03-05T11:03:58.935Z,98460.11
2019-03-05T11:06:27.675Z,98438.59
2019-03-05T11:08:56.490Z,98447.61
2019-03-05T11:11:27.634Z,98434.90
2019-03-05T11:13:56.432Z,98458.02
2019-03-05T11:16:31.141Z,98431.82
2019-03-05T11:18:59.279Z,98461.16
2019-03-05T11:21:28.067Z,98421.80
2019-03-05T11:23:56.839Z,98432.67
2019-03-05T11:26:25.643Z,98423.70
2019-03-05T11:28:54.801Z,98412.35
2019-03-05T11:31:23.950Z,98404.84
2019-03-05T11:33:52.698Z,98408.37
2019-03-05T11:36:21.434Z,98404.02
2019-03-05T11:38:50.224Z,98433.45
2019-03-05T11:41:18.959Z,98431.30
2019-03-05T11:43:47.778Z,98450.94
2019-03-05T11:46:17.599Z,98495.39
2019-03-05T11:48:46.339Z,98531.39
2019-03-05T11:51:15.991Z,98527.64
2019-03-05T11:53:44.733Z,98513.90
2019-03-05T11:56:14.994Z,98509.00
2019-03-05T11:58:43.743Z,98528.79
2019-03-05T12:01:14.248Z,98525.81
2019-03-05T12:03:43.114Z,98545.19
2019-03-05T12:06:11.848Z,98540.02
2019-03-05T12:08:40.985Z,98515.23
2019-03-05T12:11:09.828Z,98512.66
2019-03-05T12:13:39.166Z,98514.84
2019-03-05T12:16:08.729Z,98525.77
2019-03-05T12:18:37.460Z,98513.70
2019-03-05T12:21:06.574Z,98520.64
2019-03-05T12:23:35.322Z,98520.70
2019-03-05T12:26:04.249Z,98499.71
2019-03-05T12:28:34.490Z,98510.30
2019-03-05T12:31:03.235Z,98503.62
2019-03-05T12:33:32.014Z,98489.98
2019-03-05T12:36:00.788Z,98474.73
2019-03-05T12:38:29.806Z,98482.19
2019-03-05T12:40:58.578Z,98492.79
2019-03-05T12:43:27.687Z,98489.34
2019-03-05T12:45:56.577Z,98489.25
2019-03-05T12:48:25.560Z,98493.63
2019-03-05T12:50:54.306Z,98487.56
2019-03-05T12:53:24.766Z,98483.84
2019-03-05T12:55:53.553Z,98486.93
2019-03-05T12:58:22.803Z,98488.06
2019-03-05T13:00:51.855Z,98503.60
2019-03-05T13:03:20.942Z,98473.05
2019-03-05T13:05:49.694Z,98470.46
2019-03-05T13:08:18.429Z,98471.56
2019-03-05T13:10:47.209Z,98477.55
2019-03-05T13:13:15.960Z,98486.84
2019-03-05T13:15:46.504Z,98497.45
2019-03-05T13:18:15.269Z,98471.17
2019-03-05T13:20:44.011Z,98481.85
2019-03-05T13:23:12.805Z,98458.50
2019-03-05T13:25:41.535Z,98483.89
2019-03-05T13:28:10.258Z,98475.38
2019-03-05T13:30:40.481Z,98488.12
2019-03-05T13:33:09.542Z,98492.87
2019-03-05T13:35:38.305Z,98494.61
2019-03-05T13:38:09.708Z,98478.80
2019-03-05T13:40:40.782Z,98471.73
2019-03-05T13:43:10.143Z,98471.16
2019-03-05T13:45:42.799Z,98469.70
2019-03-05T13:48:23.670Z,98491.25
2019-03-05T13:50:55.253Z,98470.83
2019-03-05T13:53:33.063Z,98473.08
2019-03-05T13:56:07.605Z,98449.00
2019-03-05T13:58:54.621Z,98453.42
2019-03-05T14:01:23.500Z,98442.44
2019-03-05T14:04:00.899Z,98455.15
2019-03-05T14:06:41.545Z,98449.00
2019-03-05T14:09:15.911Z,98457.38
2019-03-05T14:11:46.828Z,98472.41
2019-03-05T14:14:21.348Z,98461.53
2019-03-05T14:16:58.004Z,98477.63
2019-03-05T14:19:26.739Z,98426.12
2019-03-05T14:21:55.509Z,98454.48
2019-03-05T14:24:24.281Z,98469.06
2019-03-05T14:26:53.092Z,98449.39
2019-03-05T14:29:21.900Z,98463.63
2019-03-05T14:31:50.629Z,98464.70
2019-03-05T14:34:19.461Z,98503.12
2019-03-05T14:36:48.265Z,98478.95
2019-03-05T14:39:24.479Z,98472.25
2019-03-05T14:41:53.675Z,98475.84
2019-03-05T14:44:24.766Z,98480.38
2019-03-05T14:46:55.979Z,98476.09
2019-03-05T14:49:25.368Z,98476.16
2019-03-05T14:51:54.246Z,98471.54
2019-03-05T14:54:23.067Z,98468.71
2019-03-05T14:56:51.868Z,98477.66
2019-03-05T14:59:21.088Z,98482.52
2019-03-05T15:01:50.030Z,98480.55
2019-03-05T15:04:18.811Z,98478.23
2019-03-05T15:06:52.617Z,98489.40
2019-03-05T15:09:22.020Z,98473.18
2019-03-05T15:11:50.780Z,98477.73
2019-03-05T15:14:19.557Z,98484.43
2019-03-05T15:16:48.339Z,98478.84
2019-03-05T15:19:21.418Z,98479.91
2019-03-05T15:21:48.017Z,98481.71
2019-03-05T15:24:16.923Z,98482.88
2019-03-05T15:26:45.662Z,98471.23
2019-03-05T15:29:14.600Z,98478.70
2019-03-05T15:31:43.720Z,98488.53
2019-03-05T15:34:12.516Z,98479.47
2019-03-05T15:36:41.583Z,98483.23
2019-03-05T15:39:10.422Z,98485.58
2019-03-05T15:41:39.274Z,98489.81
2019-03-05T15:44:08.229Z,98501.38
2019-03-05T15:46:37.001Z,98499.77
2019-03-05T15:49:06.620Z,98495.39
2019-03-05T15:51:35.373Z,98494.47
2019-03-05T15:54:04.563Z,98502.50
2019-03-05T15:56:42.358Z,98494.00
2019-03-05T15:59:11.198Z,98508.80
2019-03-05T16:01:39.943Z,98511.72
2019-03-05T16:04:08.678Z,98511.67
2019-03-05T16:06:37.468Z,98512.75
2019-03-05T16:09:09.085Z,98509.23
2019-03-05T16:11:37.818Z,98513.59
2019-03-05T16:14:06.574Z,98523.41
2019-03-05T16:16:35.291Z,98522.84
2019-03-05T16:19:04.064Z,98526.41
2019-03-05T16:21:32.804Z,98546.53
2019-03-05T16:24:02.712Z,98539.69
2019-03-05T16:26:31.782Z,98544.38
2019-03-05T16:29:00.519Z,98548.70
2019-03-05T16:31:49.829Z,98575.19
2019-03-05T16:34:19.223Z,98573.13
2019-03-05T16:36:49.595Z,98591.80
2019-03-05T16:39:33.352Z,98574.75
2019-03-05T16:42:06.865Z,98585.95
2019-03-05T16:44:46.375Z,98617.88
2019-03-05T16:47:19.849Z,98608.42
2019-03-05T16:50:06.690Z,98613.39
2019-03-05T16:52:55.421Z,98611.17
2019-03-05T16:55:40.694Z,98617.97
2019-03-05T16:58:27.152Z,98622.55
2019-03-05T17:01:03.520Z,98613.20
2019-03-05T17:03:43.168Z,98610.86
2019-03-05T17:06:28.809Z,98613.27
2019-03-05T17:09:08.344Z,98626.19
2019-03-05T17:11:55.211Z,98617.00
2019-03-05T17:14:24.351Z,98625.16
2019-03-05T17:16:53.171Z,98626.86
2019-03-05T17:19:22.224Z,98633.34
2019-03-05T17:21:53.023Z,98647.75
2019-03-05T17:24:22.055Z,98663.25
2019-03-05T17:26:50.819Z,98710.44
2019-03-05T17:29:19.559Z,98744.95
2019-03-05T17:31:48.362Z,98762.96
2019-03-05T17:34:17.100Z,98764.94
2019-03-05T17:36:46.147Z,98769.36
2019-03-05T17:39:16.964Z,98773.98
2019-03-05T17:41:46.031Z,98773.48
2019-03-05T17:44:14.793Z,98784.00
2019-03-05T17:46:43.914Z,98772.63
2019-03-05T17:49:12.660Z,98758.73
2019-03-05T17:51:41.788Z,98759.47
2019-03-05T17:54:10.505Z,98749.92
2019-03-05T17:56:39.304Z,98744.61
2019-03-05T17:59:08.518Z,98759.24
2019-03-05T18:01:37.323Z,98762.90
2019-03-05T18:04:06.069Z,98758.96
2019-03-05T18:06:35.222Z,98763.68
2019-03-05T18:09:05.378Z,98761.52
2019-03-05T18:11:34.435Z,98776.29
2019-03-05T18:14:03.353Z,98777.31
2019-03-05T18:16:32.309Z,98777.11
2019-03-05T18:19:01.060Z,98775.94
2019-03-05T18:21:29.865Z,98779.73
2019-03-05T18:23:58.660Z,98775.91
2019-03-05T18:26:27.653Z,98773.68
2019-03-05T18:28:56.656Z,98772.70
2019-03-05T18:31:25.400Z,98778.77
2019-03-05T18:33:54.173Z,98798.79
2019-03-05T18:36:22.927Z,98792.19
2019-03-05T18:38:51.714Z,98790.73
2019-03-05T18:41:20.549Z,98786.56
2019-03-05T18:43:49.320Z,98791.30
2019-03-05T18:46:18.093Z,98795.95
2019-03-05T18:48:46.998Z,98795.38
2019-03-05T18:51:16.453Z,98784.92
2019-03-05T18:53:46.780Z,98783.56
2019-03-05T18:56:15.575Z,98803.67
2019-03-05T18:58:44.416Z,98800.73
2019-03-05T19:01:13.629Z,98801.13
2019-03-05T19:03:42.756Z,98800.48
2019-03-05T19:06:11.839Z,98801.70
2019-03-05T19:08:40.628Z,98800.86
2019-03-05T19:11:09.463Z,98806.16
2019-03-05T19:13:41.065Z,98787.66
2019-03-05T19:16:10.589Z,98793.47
2019-03-05T19:18:41.305Z,98794.20
2019-03-05T19:21:10.398Z,98799.98
2019-03-05T19:23:39.910Z,98806.42
2019-03-05T19:26:09.914Z,98804.96
2019-03-05T19:28:38.778Z,98811.52
2019-03-05T19:31:07.910Z,98810.02
2019-03-05T19:33:37.310Z,98818.76
2019-03-05T19:36:08.350Z,98819.28
2019-03-05T19:38:37.399Z,98826.87
2019-03-05T19:41:07.972Z,98838.36
2019-03-05T19:43:36.786Z,98835.48
2019-03-05T19:46:06.165Z,98837.72
2019-03-05T19:48:34.985Z,98838.69
2019-03-05T19:51:03.924Z,98842.30
2019-03-05T19:53:32.758Z,98842.18
2019-03-05T19:56:01.565Z,98848.27
2019-03-05T19:58:30.373Z,98847.98
2019-03-05T20:01:05.077Z,98849.48
2019-03-05T20:03:34.042Z,98844.39
2019-03-05T20:06:03.093Z,98853.70
2019-03-05T20:08:39.485Z,98856.63
2019-03-05T20:11:03.036Z,98856.67
2019-03-05T20:13:32.243Z,98863.34
2019-03-05T20:16:01.641Z,98870.83
2019-03-05T20:18:30.718Z,98871.00
2019-03-05T20:20:59.930Z,98870.15
2019-03-05T20:23:30.233Z,98874.06
2019-03-05T20:26:00.801Z,98878.84
2019-03-05T20:28:31.326Z,98874.41
2019-03-05T20:31:00.511Z,98882.92
2019-03-05T20:33:30.650Z,98884.50
2019-03-05T20:35:59.963Z,98886.59
2019-03-05T20:38:29.364Z,98894.43
2019-03-05T20:40:58.204Z,98901.48
2019-03-05T20:43:27.039Z,98903.23
2019-03-05T20:46:07.755Z,98911.36
2019-03-05T20:48:38.084Z,98916.36
2019-03-05T20:51:07.047Z,98918.34
2019-03-05T20:53:35.865Z,98918.84
2019-03-05T20:56:04.778Z,98918.12
2019-03-05T20:58:33.614Z,98929.41
2019-03-05T21:01:06.548Z,98928.39
2019-03-05T21:03:37.686Z,98931.00
2019-03-05T21:06:06.768Z,98937.17
2019-03-05T21:08:37.904Z,98941.70
2019-03-05T21:11:08.444Z,98936.39
2019-03-05T21:13:39.486Z,98941.11
2019-03-05T21:16:08.664Z,98941.21
2019-03-05T21:18:37.469Z,98956.94
2019-03-05T21:21:06.533Z,98948.58
2019-03-05T21:23:35.734Z,98946.62
2019-03-05T21:26:04.831Z,98946.52
2019-03-05T21:28:34.548Z,98951.19
2019-03-05T21:31:06.915Z,98956.05
2019-03-05T21:33:35.999Z,98955.25
2019-03-05T21:36:05.084Z,98966.49
2019-03-05T21:38:33.872Z,98962.94
2019-03-05T21:41:02.610Z,98968.42
2019-03-05T21:43:31.685Z,98970.08
2019-03-05T21:46:06.154Z,98978.09
2019-03-05T21:48:34.899Z,98980.92
2019-03-05T21:51:03.662Z,98988.98
2019-03-05T21:53:32.409Z,98992.92
2019-03-05T21:56:01.649Z,98992.12
2019-03-05T21:58:30.720Z,98999.61
2019-03-05T22:00:59.505Z,99000.35
2019-03-05T22:03:28.265Z,99010.10
2019-03-05T22:05:57.009Z,99011.88
2019-03-05T22:08:25.785Z,99012.73
2019-03-05T22:10:54.574Z,99016.28
2019-03-05T22:13:23.317Z,99028.03
2019-03-05T22:15:52.059Z,99026.92
2019-03-05T22:18:21.104Z,99026.37
2019-03-05T22:20:49.849Z,99032.06
2019-03-05T22:23:18.619Z,99036.42
2019-03-05T22:25:47.347Z,99035.72
2019-03-05T22:28:16.117Z,99043.11
2019-03-05T22:30:44.859Z,99040.69
2019-03-05T22:33:13.653Z,99041.89
2019-03-05T22:35:42.429Z,99043.81
2019-03-05T22:38:11.245Z,99046.16
2019-03-05T22:40:40.014Z,99054.40
2019-03-05T22:43:08.754Z,99043.81
2019-03-05T22:45:37.554Z,99053.14
2019-03-05T22:48:06.346Z,99057.52
2019-03-05T22:50:35.079Z,99058.47
2019-03-05T22:53:04.033Z,99061.57
2019-03-05T22:55:32.766Z,99066.03
2019-03-05T22:58:01.529Z,99065.58
2019-03-05T23:00:43.177Z,99072.61
2019-03-05T23:03:14.875Z,99072.24
2019-03-05T23:05:44.999Z,99080.39
2019-03-05T23:08:14.150Z,99079.14
2019-03-05T23:10:42.918Z,99092.64
2019-03-05T23:13:11.659Z,99083.77
2019-03-05T23:15:40.429Z,99094.25
2019-03-05T23:18:09.160Z,99086.33
2019-03-05T23:20:38.087Z,99099.03
2019-03-05T23:23:06.810Z,99106.41
2019-03-05T23:25:35.604Z,99104.97
2019-03-05T23:28:04.932Z,99120.98
2019-03-05T23:30:33.684Z,99125.94
2019-03-05T23:33:02.759Z,99129.12
2019-03-05T23:35:31.991Z,99129.17
2019-03-05T23:38:00.748Z,99135.75
2019-03-05T23:40:29.886Z,99136.45
2019-03-05T23:42:58.669Z,99133.09
2019-03-05T23:45:27.797Z,99146.48
2019-03-05T23:47:56.539Z,99141.74
2019-03-05T23:50:25.298Z,99147.03
2019-03-05T23:52:54.030Z,99143.91
2019-03-05T23:55:22.931Z,99145.23
2019-03-05T23:57:53.279Z,99142.66
